createdAt,value
2023-01-02T00:09:20.505Z,4.8
2023-01-02T00:24:30.322Z,4
2023-01-02T00:39:39.363Z,4.2
2023-01-02T00:54:49.112Z,4.6
2023-01-02T01:09:59.325Z,4.9
2023-01-02T01:25:11.702Z,4.5
2023-01-02T01:40:21.446Z,4
2023-01-02T01:55:30.634Z,4
2023-01-02T02:10:40.880Z,3.8
2023-01-02T02:25:50.658Z,4.8
2023-01-02T02:41:00.263Z,3.9
2023-01-02T02:56:10.379Z,3.5
2023-01-02T03:11:20.024Z,4.2
2023-01-02T03:26:29.347Z,3.8
2023-01-02T03:41:38.967Z,3.1
2023-01-02T03:56:48.877Z,3.3
2023-01-02T04:11:58.604Z,3.7
2023-01-02T04:27:08.527Z,3.5
2023-01-02T04:42:18.463Z,4
2023-01-02T04:57:28.907Z,4
2023-01-02T05:12:38.599Z,4.2
2023-01-02T05:27:48.029Z,4.2
2023-01-02T05:42:58.291Z,4
2023-01-02T05:58:07.813Z,4.1
2023-01-02T06:13:17.648Z,4
2023-01-02T06:28:26.988Z,3.6
2023-01-02T06:43:36.767Z,4
2023-01-02T06:58:46.828Z,3.5
2023-01-02T07:13:56.471Z,3.2
2023-01-02T07:29:10.964Z,3.3
2023-01-02T07:44:22.394Z,4
2023-01-02T07:59:32.133Z,2.8
2023-01-02T08:14:41.991Z,3.2
2023-01-02T08:29:51.646Z,3.4
2023-01-02T08:45:01.582Z,3.1
2023-01-02T09:00:12.316Z,3
2023-01-02T09:15:53.770Z,3
2023-01-02T09:31:12.378Z,2.5
2023-01-02T09:46:23.158Z,3
2023-01-02T10:01:33.303Z,2.9
2023-01-02T10:16:43.789Z,2.9
2023-01-02T10:31:53.528Z,2.8
2023-01-02T10:47:03.575Z,2.4
2023-01-02T11:02:13.497Z,2.7
2023-01-02T11:17:23.723Z,3.1
2023-01-02T11:32:33.147Z,2.3
2023-01-02T11:47:43.994Z,2.2
2023-01-02T12:02:53.943Z,1.9
2023-01-02T12:18:04.285Z,1.2
2023-01-02T12:33:13.700Z,1.4
2023-01-02T12:48:22.831Z,1.1
2023-01-02T13:03:32.802Z,1.7
2023-01-02T13:19:01.249Z,1.9
2023-01-02T13:34:11.756Z,1.6
2023-01-02T13:49:21.577Z,1.3
2023-01-02T14:04:31.212Z,1.6
2023-01-02T14:19:40.524Z,1.7
2023-01-02T14:34:49.566Z,2.2
2023-01-02T14:49:59.477Z,2.7
2023-01-02T15:05:09.575Z,3.2
2023-01-02T15:20:19.309Z,4.4
2023-01-02T15:35:28.253Z,4.1
2023-01-02T15:50:37.686Z,4.5
2023-01-02T16:05:47.194Z,4.2
2023-01-02T16:20:57.046Z,3.9
2023-01-02T16:36:07.061Z,4.6
2023-01-02T16:51:16.273Z,4.6
2023-01-02T17:06:25.792Z,5.4
2023-01-02T17:21:35.108Z,7.1
2023-01-02T17:38:02.877Z,5.6
2023-01-02T17:53:14.236Z,5.7
2023-01-02T18:08:24.082Z,4.4
2023-01-02T18:23:33.359Z,3.9
2023-01-02T18:38:43.311Z,4.2
2023-01-02T18:53:52.841Z,3.9
2023-01-02T19:09:02.617Z,6
2023-01-02T19:24:12.473Z,6.1
2023-01-02T19:39:22.349Z,6.2
2023-01-02T19:54:31.992Z,6.1
2023-01-02T20:09:41.396Z,6.6
2023-01-02T20:24:50.996Z,5.9
2023-01-02T20:40:00.384Z,7.6
2023-01-02T20:55:10.969Z,7.4
2023-01-02T21:10:21.193Z,5.2
2023-01-02T21:25:30.888Z,5.7
2023-01-02T21:40:40.490Z,5.1
2023-01-02T21:55:50.056Z,4.4
2023-01-02T22:10:59.486Z,5
2023-01-02T22:26:13.147Z,6.2
2023-01-02T22:41:22.872Z,6.8
2023-01-02T22:56:32.179Z,6.8
2023-01-02T23:11:41.612Z,7.7
2023-01-02T23:26:51.324Z,8
2023-01-02T23:42:00.781Z,6.6
2023-01-02T23:57:12.625Z,6.5
